sensor_id;sensor_type;location;lat;lon;timestamp;P1;durP1;ratioP1;P2;durP2;ratioP2
40755;SDS011;26461;45.630;9.418;2023-06-19T00:01:10;11.53;;;10.40;;
40755;SDS011;26461;45.630;9.418;2023-06-19T00:04:21;13.20;;;11.57;;
40755;SDS011;26461;45.630;9.418;2023-06-19T00:07:31;13.20;;;12.50;;
40755;SDS011;26461;45.630;9.418;2023-06-19T00:10:42;13.30;;;11.73;;
40755;SDS011;26461;45.630;9.418;2023-06-19T00:13:47;13.33;;;12.03;;
40755;SDS011;26461;45.630;9.418;2023-06-19T00:16:57;13.03;;;12.20;;
40755;SDS011;26461;45.630;9.418;2023-06-19T00:20:08;14.57;;;13.00;;
40755;SDS011;26461;45.630;9.418;2023-06-19T00:23:18;14.73;;;13.10;;
40755;SDS011;26461;45.630;9.418;2023-06-19T00:26:29;13.53;;;12.70;;
40755;SDS011;26461;45.630;9.418;2023-06-19T00:29:39;11.57;;;10.97;;
40755;SDS011;26461;45.630;9.418;2023-06-19T00:32:50;17.23;;;11.87;;
40755;SDS011;26461;45.630;9.418;2023-06-19T00:35:57;14.63;;;13.27;;
40755;SDS011;26461;45.630;9.418;2023-06-19T00:39:07;13.93;;;12.50;;
40755;SDS011;26461;45.630;9.418;2023-06-19T00:42:18;11.87;;;11.30;;
40755;SDS011;26461;45.630;9.418;2023-06-19T00:45:28;13.50;;;11.80;;
40755;SDS011;26461;45.630;9.418;2023-06-19T00:48:34;13.33;;;11.70;;
40755;SDS011;26461;45.630;9.418;2023-06-19T00:51:44;13.00;;;10.63;;
40755;SDS011;26461;45.630;9.418;2023-06-19T00:54:55;15.73;;;11.73;;
40755;SDS011;26461;45.630;9.418;2023-06-19T00:58:01;14.13;;;11.80;;
40755;SDS011;26461;45.630;9.418;2023-06-19T01:01:07;11.33;;;10.37;;
40755;SDS011;26461;45.630;9.418;2023-06-19T01:04:13;15.90;;;12.93;;
40755;SDS011;26461;45.630;9.418;2023-06-19T01:07:29;12.73;;;11.57;;
40755;SDS011;26461;45.630;9.418;2023-06-19T01:10:54;11.90;;;10.80;;
40755;SDS011;26461;45.630;9.418;2023-06-19T01:14:05;11.40;;;10.83;;
40755;SDS011;26461;45.630;9.418;2023-06-19T01:17:13;10.50;;;9.93;;
40755;SDS011;26461;45.630;9.418;2023-06-19T01:20:24;11.17;;;9.77;;
40755;SDS011;26461;45.630;9.418;2023-06-19T01:23:35;11.00;;;9.87;;
40755;SDS011;26461;45.630;9.418;2023-06-19T01:26:45;12.07;;;10.70;;
40755;SDS011;26461;45.630;9.418;2023-06-19T01:29:58;11.03;;;10.43;;
40755;SDS011;26461;45.630;9.418;2023-06-19T01:33:10;11.10;;;10.30;;
40755;SDS011;26461;45.630;9.418;2023-06-19T01:36:28;15.17;;;11.80;;
40755;SDS011;26461;45.630;9.418;2023-06-19T01:39:40;11.53;;;10.40;;
40755;SDS011;26461;45.630;9.418;2023-06-19T01:42:51;13.27;;;12.60;;
40755;SDS011;26461;45.630;9.418;2023-06-19T01:46:04;12.93;;;10.47;;
40755;SDS011;26461;45.630;9.418;2023-06-19T01:49:14;19.40;;;11.70;;
40755;SDS011;26461;45.630;9.418;2023-06-19T01:52:24;11.10;;;10.50;;
40755;SDS011;26461;45.630;9.418;2023-06-19T01:55:35;12.87;;;10.80;;
40755;SDS011;26461;45.630;9.418;2023-06-19T01:58:40;13.77;;;10.87;;
40755;SDS011;26461;45.630;9.418;2023-06-19T02:01:51;12.20;;;10.60;;
40755;SDS011;26461;45.630;9.418;2023-06-19T02:05:01;10.47;;;9.77;;
40755;SDS011;26461;45.630;9.418;2023-06-19T02:08:11;11.77;;;10.40;;
40755;SDS011;26461;45.630;9.418;2023-06-19T02:11:21;10.80;;;9.43;;
40755;SDS011;26461;45.630;9.418;2023-06-19T02:14:32;10.83;;;9.50;;
40755;SDS011;26461;45.630;9.418;2023-06-19T02:17:43;10.57;;;10.00;;
40755;SDS011;26461;45.630;9.418;2023-06-19T02:20:53;10.13;;;9.63;;
40755;SDS011;26461;45.630;9.418;2023-06-19T02:24:03;11.00;;;10.17;;
40755;SDS011;26461;45.630;9.418;2023-06-19T02:27:15;10.60;;;10.03;;
40755;SDS011;26461;45.630;9.418;2023-06-19T02:30:22;12.00;;;10.20;;
40755;SDS011;26461;45.630;9.418;2023-06-19T02:33:32;11.50;;;10.90;;
40755;SDS011;26461;45.630;9.418;2023-06-19T02:36:38;11.83;;;10.10;;
40755;SDS011;26461;45.630;9.418;2023-06-19T02:39:49;12.47;;;11.70;;
40755;SDS011;26461;45.630;9.418;2023-06-19T02:42:54;12.00;;;10.67;;
40755;SDS011;26461;45.630;9.418;2023-06-19T02:46:04;14.33;;;11.53;;
40755;SDS011;26461;45.630;9.418;2023-06-19T02:49:14;12.87;;;11.30;;
40755;SDS011;26461;45.630;9.418;2023-06-19T02:52:25;13.63;;;11.87;;
40755;SDS011;26461;45.630;9.418;2023-06-19T02:55:37;13.13;;;10.97;;
40755;SDS011;26461;45.630;9.418;2023-06-19T02:58:47;13.07;;;11.73;;
40755;SDS011;26461;45.630;9.418;2023-06-19T03:01:53;13.83;;;10.47;;
40755;SDS011;26461;45.630;9.418;2023-06-19T03:05:03;14.57;;;10.73;;
40755;SDS011;26461;45.630;9.418;2023-06-19T03:08:13;12.57;;;9.80;;
40755;SDS011;26461;45.630;9.418;2023-06-19T03:11:19;12.20;;;9.90;;
40755;SDS011;26461;45.630;9.418;2023-06-19T03:14:29;12.30;;;10.07;;
40755;SDS011;26461;45.630;9.418;2023-06-19T03:17:39;12.23;;;10.23;;
40755;SDS011;26461;45.630;9.418;2023-06-19T03:24:15;11.87;;;9.20;;
40755;SDS011;26461;45.630;9.418;2023-06-19T03:27:26;13.90;;;10.50;;
40755;SDS011;26461;45.630;9.418;2023-06-19T03:30:36;10.47;;;9.97;;
40755;SDS011;26461;45.630;9.418;2023-06-19T03:33:47;15.80;;;11.57;;
40755;SDS011;26461;45.630;9.418;2023-06-19T03:36:58;12.27;;;11.20;;
40755;SDS011;26461;45.630;9.418;2023-06-19T03:40:11;12.03;;;11.43;;
40755;SDS011;26461;45.630;9.418;2023-06-19T03:43:25;11.63;;;9.93;;
40755;SDS011;26461;45.630;9.418;2023-06-19T03:46:37;11.97;;;10.30;;
40755;SDS011;26461;45.630;9.418;2023-06-19T03:49:47;10.90;;;10.30;;
40755;SDS011;26461;45.630;9.418;2023-06-19T03:52:58;11.70;;;11.10;;
40755;SDS011;26461;45.630;9.418;2023-06-19T03:56:09;13.10;;;10.60;;
40755;SDS011;26461;45.630;9.418;2023-06-19T03:59:20;9.80;;;9.30;;
40755;SDS011;26461;45.630;9.418;2023-06-19T04:02:30;11.03;;;10.47;;
40755;SDS011;26461;45.630;9.418;2023-06-19T04:05:41;11.13;;;10.53;;
40755;SDS011;26461;45.630;9.418;2023-06-19T04:08:49;9.77;;;9.23;;
40755;SDS011;26461;45.630;9.418;2023-06-19T04:12:00;12.30;;;10.80;;
40755;SDS011;26461;45.630;9.418;2023-06-19T04:15:11;10.87;;;10.10;;
40755;SDS011;26461;45.630;9.418;2023-06-19T04:18:21;10.57;;;10.00;;
40755;SDS011;26461;45.630;9.418;2023-06-19T04:21:33;11.10;;;9.60;;
40755;SDS011;26461;45.630;9.418;2023-06-19T04:24:44;11.70;;;9.43;;
40755;SDS011;26461;45.630;9.418;2023-06-19T04:27:54;12.70;;;10.27;;
40755;SDS011;26461;45.630;9.418;2023-06-19T04:31:00;12.57;;;10.43;;
40755;SDS011;26461;45.630;9.418;2023-06-19T04:34:10;10.07;;;9.23;;
40755;SDS011;26461;45.630;9.418;2023-06-19T04:37:20;11.40;;;10.80;;
40755;SDS011;26461;45.630;9.418;2023-06-19T04:40:31;10.70;;;10.10;;
40755;SDS011;26461;45.630;9.418;2023-06-19T04:43:41;11.90;;;9.40;;
40755;SDS011;26461;45.630;9.418;2023-06-19T04:46:52;11.50;;;10.90;;
40755;SDS011;26461;45.630;9.418;2023-06-19T04:50:10;12.90;;;10.37;;
40755;SDS011;26461;45.630;9.418;2023-06-19T04:53:15;13.37;;;9.70;;
40755;SDS011;26461;45.630;9.418;2023-06-19T04:56:25;15.53;;;10.50;;
40755;SDS011;26461;45.630;9.418;2023-06-19T04:59:36;11.33;;;10.70;;
40755;SDS011;26461;45.630;9.418;2023-06-19T05:02:46;10.60;;;10.00;;
40755;SDS011;26461;45.630;9.418;2023-06-19T05:05:52;12.73;;;11.20;;
40755;SDS011;26461;45.630;9.418;2023-06-19T05:09:04;12.90;;;11.00;;
40755;SDS011;26461;45.630;9.418;2023-06-19T05:12:15;11.33;;;10.73;;
40755;SDS011;26461;45.630;9.418;2023-06-19T05:15:25;13.90;;;11.33;;
40755;SDS011;26461;45.630;9.418;2023-06-19T05:18:36;11.00;;;10.40;;
40755;SDS011;26461;45.630;9.418;2023-06-19T05:21:47;11.83;;;10.17;;
40755;SDS011;26461;45.630;9.418;2023-06-19T05:24:52;14.07;;;13.40;;
40755;SDS011;26461;45.630;9.418;2023-06-19T05:28:02;12.90;;;11.47;;
40755;SDS011;26461;45.630;9.418;2023-06-19T05:31:15;12.43;;;10.80;;
40755;SDS011;26461;45.630;9.418;2023-06-19T05:34:25;13.43;;;10.83;;
40755;SDS011;26461;45.630;9.418;2023-06-19T05:37:35;11.50;;;10.67;;
40755;SDS011;26461;45.630;9.418;2023-06-19T05:40:45;11.63;;;10.97;;
40755;SDS011;26461;45.630;9.418;2023-06-19T05:43:56;14.83;;;9.80;;
40755;SDS011;26461;45.630;9.418;2023-06-19T05:47:06;8.63;;;8.13;;
40755;SDS011;26461;45.630;9.418;2023-06-19T05:50:17;9.73;;;8.80;;
40755;SDS011;26461;45.630;9.418;2023-06-19T05:53:22;8.27;;;7.87;;
40755;SDS011;26461;45.630;9.418;2023-06-19T05:56:32;8.13;;;7.73;;
40755;SDS011;26461;45.630;9.418;2023-06-19T05:59:43;8.73;;;8.27;;
40755;SDS011;26461;45.630;9.418;2023-06-19T06:02:53;8.80;;;8.30;;
40755;SDS011;26461;45.630;9.418;2023-06-19T06:05:58;11.23;;;7.13;;
40755;SDS011;26461;45.630;9.418;2023-06-19T06:09:12;8.47;;;7.50;;
40755;SDS011;26461;45.630;9.418;2023-06-19T06:12:19;12.57;;;9.20;;
40755;SDS011;26461;45.630;9.418;2023-06-19T06:15:29;8.37;;;7.93;;
40755;SDS011;26461;45.630;9.418;2023-06-19T06:18:35;9.37;;;8.87;;
40755;SDS011;26461;45.630;9.418;2023-06-19T06:21:40;10.07;;;8.73;;
40755;SDS011;26461;45.630;9.418;2023-06-19T06:24:51;10.30;;;8.00;;
40755;SDS011;26461;45.630;9.418;2023-06-19T06:27:58;10.07;;;8.03;;
40755;SDS011;26461;45.630;9.418;2023-06-19T06:31:08;10.53;;;8.47;;
40755;SDS011;26461;45.630;9.418;2023-06-19T06:34:18;10.37;;;7.77;;
40755;SDS011;26461;45.630;9.418;2023-06-19T06:37:29;7.57;;;7.17;;
40755;SDS011;26461;45.630;9.418;2023-06-19T06:40:39;9.20;;;8.67;;
40755;SDS011;26461;45.630;9.418;2023-06-19T06:43:51;9.10;;;7.83;;
40755;SDS011;26461;45.630;9.418;2023-06-19T06:46:57;8.33;;;7.93;;
40755;SDS011;26461;45.630;9.418;2023-06-19T06:50:08;10.03;;;8.90;;
40755;SDS011;26461;45.630;9.418;2023-06-19T06:53:14;7.80;;;7.40;;
40755;SDS011;26461;45.630;9.418;2023-06-19T06:56:24;8.63;;;8.13;;
40755;SDS011;26461;45.630;9.418;2023-06-19T06:59:34;7.90;;;7.50;;
40755;SDS011;26461;45.630;9.418;2023-06-19T07:02:44;9.73;;;7.90;;
40755;SDS011;26461;45.630;9.418;2023-06-19T07:05:57;10.00;;;8.73;;
40755;SDS011;26461;45.630;9.418;2023-06-19T07:09:03;9.27;;;8.77;;
40755;SDS011;26461;45.630;9.418;2023-06-19T07:12:13;9.70;;;9.00;;
40755;SDS011;26461;45.630;9.418;2023-06-19T07:15:24;8.87;;;8.27;;
40755;SDS011;26461;45.630;9.418;2023-06-19T07:18:34;10.57;;;8.03;;
40755;SDS011;26461;45.630;9.418;2023-06-19T07:21:49;10.97;;;9.57;;
40755;SDS011;26461;45.630;9.418;2023-06-19T07:25:00;10.90;;;7.97;;
40755;SDS011;26461;45.630;9.418;2023-06-19T07:28:10;10.83;;;8.60;;
40755;SDS011;26461;45.630;9.418;2023-06-19T07:31:20;9.80;;;8.67;;
40755;SDS011;26461;45.630;9.418;2023-06-19T07:34:31;11.50;;;8.90;;
40755;SDS011;26461;45.630;9.418;2023-06-19T07:37:42;7.83;;;7.43;;
40755;SDS011;26461;45.630;9.418;2023-06-19T07:40:53;9.40;;;7.90;;
40755;SDS011;26461;45.630;9.418;2023-06-19T07:44:03;8.87;;;7.40;;
40755;SDS011;26461;45.630;9.418;2023-06-19T07:47:15;8.37;;;7.93;;
40755;SDS011;26461;45.630;9.418;2023-06-19T07:50:26;11.60;;;7.80;;
40755;SDS011;26461;45.630;9.418;2023-06-19T07:53:31;7.93;;;7.57;;
40755;SDS011;26461;45.630;9.418;2023-06-19T07:56:42;9.87;;;7.20;;
40755;SDS011;26461;45.630;9.418;2023-06-19T07:59:57;8.13;;;7.73;;
40755;SDS011;26461;45.630;9.418;2023-06-19T08:03:15;9.93;;;8.00;;
40755;SDS011;26461;45.630;9.418;2023-06-19T08:06:26;8.93;;;7.70;;
40755;SDS011;26461;45.630;9.418;2023-06-19T08:09:36;11.13;;;7.90;;
40755;SDS011;26461;45.630;9.418;2023-06-19T08:12:46;8.30;;;7.80;;
40755;SDS011;26461;45.630;9.418;2023-06-19T08:15:57;8.20;;;7.80;;
40755;SDS011;26461;45.630;9.418;2023-06-19T08:19:07;9.33;;;8.83;;
40755;SDS011;26461;45.630;9.418;2023-06-19T08:22:17;9.00;;;8.50;;
40755;SDS011;26461;45.630;9.418;2023-06-19T08:25:28;9.80;;;8.27;;
40755;SDS011;26461;45.630;9.418;2023-06-19T08:28:38;10.47;;;8.93;;
40755;SDS011;26461;45.630;9.418;2023-06-19T08:31:51;9.07;;;8.20;;
40755;SDS011;26461;45.630;9.418;2023-06-19T08:35:02;9.57;;;7.97;;
40755;SDS011;26461;45.630;9.418;2023-06-19T08:38:07;7.57;;;7.20;;
40755;SDS011;26461;45.630;9.418;2023-06-19T08:41:18;7.97;;;7.57;;
40755;SDS011;26461;45.630;9.418;2023-06-19T08:44:24;7.40;;;7.00;;
40755;SDS011;26461;45.630;9.418;2023-06-19T08:47:34;8.57;;;7.97;;
40755;SDS011;26461;45.630;9.418;2023-06-19T08:50:39;8.00;;;7.40;;
40755;SDS011;26461;45.630;9.418;2023-06-19T08:53:54;11.03;;;8.70;;
40755;SDS011;26461;45.630;9.418;2023-06-19T08:57:01;9.83;;;8.13;;
40755;SDS011;26461;45.630;9.418;2023-06-19T09:00:08;10.80;;;7.90;;
40755;SDS011;26461;45.630;9.418;2023-06-19T09:03:20;12.07;;;9.60;;
40755;SDS011;26461;45.630;9.418;2023-06-19T09:06:31;8.17;;;7.80;;
40755;SDS011;26461;45.630;9.418;2023-06-19T09:09:45;7.90;;;7.50;;
40755;SDS011;26461;45.630;9.418;2023-06-19T09:12:57;9.27;;;8.80;;
40755;SDS011;26461;45.630;9.418;2023-06-19T09:16:10;8.60;;;8.10;;
40755;SDS011;26461;45.630;9.418;2023-06-19T09:19:20;10.10;;;9.13;;
40755;SDS011;26461;45.630;9.418;2023-06-19T09:22:28;8.83;;;8.00;;
40755;SDS011;26461;45.630;9.418;2023-06-19T09:25:57;7.70;;;7.30;;
40755;SDS011;26461;45.630;9.418;2023-06-19T09:29:14;9.27;;;8.40;;
40755;SDS011;26461;45.630;9.418;2023-06-19T09:32:28;9.50;;;9.00;;
40755;SDS011;26461;45.630;9.418;2023-06-19T09:35:39;10.37;;;9.83;;
40755;SDS011;26461;45.630;9.418;2023-06-19T09:38:50;15.13;;;10.67;;
40755;SDS011;26461;45.630;9.418;2023-06-19T09:42:02;10.90;;;10.30;;
40755;SDS011;26461;45.630;9.418;2023-06-19T09:45:10;16.07;;;10.47;;
40755;SDS011;26461;45.630;9.418;2023-06-19T09:48:27;13.20;;;10.57;;
40755;SDS011;26461;45.630;9.418;2023-06-19T09:51:40;10.20;;;9.40;;
40755;SDS011;26461;45.630;9.418;2023-06-19T09:54:52;11.10;;;9.97;;
40755;SDS011;26461;45.630;9.418;2023-06-19T09:58:04;9.97;;;9.47;;
40755;SDS011;26461;45.630;9.418;2023-06-19T10:01:16;11.00;;;10.40;;
40755;SDS011;26461;45.630;9.418;2023-06-19T10:04:24;10.07;;;8.53;;
40755;SDS011;26461;45.630;9.418;2023-06-19T10:07:34;10.17;;;9.50;;
40755;SDS011;26461;45.630;9.418;2023-06-19T10:10:46;16.57;;;10.00;;
40755;SDS011;26461;45.630;9.418;2023-06-19T10:14:05;9.93;;;8.70;;
40755;SDS011;26461;45.630;9.418;2023-06-19T10:17:17;12.60;;;10.60;;
40755;SDS011;26461;45.630;9.418;2023-06-19T10:20:29;11.50;;;10.30;;
40755;SDS011;26461;45.630;9.418;2023-06-19T10:23:51;12.67;;;10.90;;
40755;SDS011;26461;45.630;9.418;2023-06-19T10:27:07;15.00;;;12.83;;
40755;SDS011;26461;45.630;9.418;2023-06-19T10:30:21;17.27;;;11.40;;
40755;SDS011;26461;45.630;9.418;2023-06-19T10:33:35;14.70;;;12.80;;
40755;SDS011;26461;45.630;9.418;2023-06-19T10:36:47;11.00;;;10.40;;
40755;SDS011;26461;45.630;9.418;2023-06-19T10:39:57;15.57;;;11.20;;
40755;SDS011;26461;45.630;9.418;2023-06-19T10:43:03;12.17;;;11.57;;
40755;SDS011;26461;45.630;9.418;2023-06-19T10:46:14;14.87;;;12.90;;
40755;SDS011;26461;45.630;9.418;2023-06-19T10:49:19;11.50;;;10.93;;
40755;SDS011;26461;45.630;9.418;2023-06-19T10:52:31;17.30;;;11.50;;
40755;SDS011;26461;45.630;9.418;2023-06-19T10:55:38;13.37;;;12.67;;
40755;SDS011;26461;45.630;9.418;2023-06-19T10:58:43;10.47;;;9.93;;
40755;SDS011;26461;45.630;9.418;2023-06-19T11:01:49;12.73;;;12.07;;
40755;SDS011;26461;45.630;9.418;2023-06-19T11:04:56;14.20;;;12.23;;
40755;SDS011;26461;45.630;9.418;2023-06-19T11:08:07;13.20;;;12.50;;
40755;SDS011;26461;45.630;9.418;2023-06-19T11:11:17;13.97;;;13.27;;
40755;SDS011;26461;45.630;9.418;2023-06-19T11:14:30;13.43;;;12.73;;
40755;SDS011;26461;45.630;9.418;2023-06-19T11:17:40;12.83;;;12.17;;
40755;SDS011;26461;45.630;9.418;2023-06-19T11:20:51;14.13;;;11.93;;
40755;SDS011;26461;45.630;9.418;2023-06-19T11:24:02;11.13;;;10.53;;
40755;SDS011;26461;45.630;9.418;2023-06-19T11:27:20;12.60;;;11.93;;
40755;SDS011;26461;45.630;9.418;2023-06-19T11:30:38;13.23;;;11.47;;
40755;SDS011;26461;45.630;9.418;2023-06-19T11:33:55;10.80;;;10.20;;
40755;SDS011;26461;45.630;9.418;2023-06-19T11:37:13;10.20;;;9.70;;
40755;SDS011;26461;45.630;9.418;2023-06-19T11:40:38;13.93;;;12.90;;
40755;SDS011;26461;45.630;9.418;2023-06-19T11:43:44;14.00;;;12.80;;
40755;SDS011;26461;45.630;9.418;2023-06-19T11:46:58;13.77;;;13.10;;
40755;SDS011;26461;45.630;9.418;2023-06-19T11:50:14;12.03;;;10.40;;
40755;SDS011;26461;45.630;9.418;2023-06-19T11:53:20;15.33;;;11.77;;
40755;SDS011;26461;45.630;9.418;2023-06-19T11:56:31;14.93;;;12.73;;
40755;SDS011;26461;45.630;9.418;2023-06-19T11:59:36;14.30;;;13.07;;
40755;SDS011;26461;45.630;9.418;2023-06-19T12:02:48;14.17;;;12.63;;
40755;SDS011;26461;45.630;9.418;2023-06-19T12:05:58;12.80;;;12.10;;
40755;SDS011;26461;45.630;9.418;2023-06-19T12:09:05;16.70;;;12.20;;
40755;SDS011;26461;45.630;9.418;2023-06-19T12:12:11;19.40;;;13.27;;
40755;SDS011;26461;45.630;9.418;2023-06-19T12:15:21;11.50;;;10.90;;
40755;SDS011;26461;45.630;9.418;2023-06-19T12:18:32;12.77;;;11.57;;
40755;SDS011;26461;45.630;9.418;2023-06-19T12:21:43;12.87;;;10.13;;
40755;SDS011;26461;45.630;9.418;2023-06-19T12:24:54;13.97;;;10.87;;
40755;SDS011;26461;45.630;9.418;2023-06-19T12:28:05;11.73;;;11.17;;
40755;SDS011;26461;45.630;9.418;2023-06-19T12:31:17;12.03;;;10.80;;
40755;SDS011;26461;45.630;9.418;2023-06-19T12:34:27;13.07;;;12.37;;
40755;SDS011;26461;45.630;9.418;2023-06-19T12:37:38;12.10;;;11.33;;
40755;SDS011;26461;45.630;9.418;2023-06-19T12:40:49;10.87;;;9.03;;
40755;SDS011;26461;45.630;9.418;2023-06-19T12:43:59;12.00;;;11.40;;
40755;SDS011;26461;45.630;9.418;2023-06-19T12:47:09;12.00;;;11.27;;
40755;SDS011;26461;45.630;9.418;2023-06-19T12:50:20;12.40;;;11.10;;
40755;SDS011;26461;45.630;9.418;2023-06-19T12:53:26;13.40;;;12.13;;
40755;SDS011;26461;45.630;9.418;2023-06-19T12:56:34;11.60;;;11.00;;
40755;SDS011;26461;45.630;9.418;2023-06-19T12:59:39;11.33;;;10.60;;
40755;SDS011;26461;45.630;9.418;2023-06-19T13:02:44;17.30;;;11.00;;
40755;SDS011;26461;45.630;9.418;2023-06-19T13:05:57;12.00;;;11.40;;
40755;SDS011;26461;45.630;9.418;2023-06-19T13:09:07;11.00;;;10.40;;
40755;SDS011;26461;45.630;9.418;2023-06-19T13:12:12;12.10;;;11.23;;
40755;SDS011;26461;45.630;9.418;2023-06-19T13:15:22;10.10;;;9.63;;
40755;SDS011;26461;45.630;9.418;2023-06-19T13:18:33;11.40;;;10.80;;
40755;SDS011;26461;45.630;9.418;2023-06-19T13:21:44;11.20;;;10.60;;
40755;SDS011;26461;45.630;9.418;2023-06-19T13:24:54;10.20;;;9.70;;
40755;SDS011;26461;45.630;9.418;2023-06-19T13:28:04;12.00;;;10.17;;
40755;SDS011;26461;45.630;9.418;2023-06-19T13:31:10;12.90;;;12.20;;
40755;SDS011;26461;45.630;9.418;2023-06-19T13:34:15;13.33;;;10.87;;
40755;SDS011;26461;45.630;9.418;2023-06-19T13:37:28;10.57;;;10.00;;
40755;SDS011;26461;45.630;9.418;2023-06-19T13:40:38;15.80;;;11.37;;
40755;SDS011;26461;45.630;9.418;2023-06-19T13:43:43;12.50;;;11.87;;
40755;SDS011;26461;45.630;9.418;2023-06-19T13:46:55;16.13;;;10.90;;
40755;SDS011;26461;45.630;9.418;2023-06-19T13:50:07;11.90;;;11.30;;
40755;SDS011;26461;45.630;9.418;2023-06-19T13:53:13;11.03;;;10.43;;
40755;SDS011;26461;45.630;9.418;2023-06-19T13:56:24;11.17;;;10.57;;
40755;SDS011;26461;45.630;9.418;2023-06-19T13:59:30;12.20;;;11.60;;
40755;SDS011;26461;45.630;9.418;2023-06-19T14:02:39;11.70;;;11.00;;
40755;SDS011;26461;45.630;9.418;2023-06-19T14:05:50;12.00;;;10.90;;
40755;SDS011;26461;45.630;9.418;2023-06-19T14:08:56;9.83;;;9.33;;
40755;SDS011;26461;45.630;9.418;2023-06-19T14:12:01;11.77;;;11.17;;
40755;SDS011;26461;45.630;9.418;2023-06-19T14:15:11;14.50;;;11.47;;
40755;SDS011;26461;45.630;9.418;2023-06-19T14:18:21;11.00;;;10.17;;
40755;SDS011;26461;45.630;9.418;2023-06-19T14:21:32;11.03;;;10.43;;
40755;SDS011;26461;45.630;9.418;2023-06-19T14:24:42;11.00;;;10.40;;
40755;SDS011;26461;45.630;9.418;2023-06-19T14:27:53;10.57;;;10.00;;
40755;SDS011;26461;45.630;9.418;2023-06-19T14:31:07;9.97;;;9.50;;
40755;SDS011;26461;45.630;9.418;2023-06-19T14:34:18;11.73;;;10.60;;
40755;SDS011;26461;45.630;9.418;2023-06-19T14:37:29;14.23;;;10.83;;
40755;SDS011;26461;45.630;9.418;2023-06-19T14:40:34;18.70;;;11.77;;
40755;SDS011;26461;45.630;9.418;2023-06-19T14:43:45;13.93;;;9.90;;
40755;SDS011;26461;45.630;9.418;2023-06-19T14:46:55;10.97;;;10.37;;
40755;SDS011;26461;45.630;9.418;2023-06-19T14:50:08;11.43;;;10.83;;
40755;SDS011;26461;45.630;9.418;2023-06-19T14:53:19;11.07;;;10.47;;
40755;SDS011;26461;45.630;9.418;2023-06-19T14:56:29;11.60;;;11.03;;
40755;SDS011;26461;45.630;9.418;2023-06-19T14:59:35;9.03;;;8.53;;
40755;SDS011;26461;45.630;9.418;2023-06-19T15:02:46;11.07;;;9.07;;
40755;SDS011;26461;45.630;9.418;2023-06-19T15:05:51;10.97;;;10.37;;
40755;SDS011;26461;45.630;9.418;2023-06-19T15:09:01;12.63;;;9.70;;
40755;SDS011;26461;45.630;9.418;2023-06-19T15:12:07;9.33;;;8.50;;
40755;SDS011;26461;45.630;9.418;2023-06-19T15:15:18;8.17;;;7.80;;
40755;SDS011;26461;45.630;9.418;2023-06-19T15:18:24;8.20;;;7.80;;
40755;SDS011;26461;45.630;9.418;2023-06-19T15:21:35;8.00;;;7.60;;
40755;SDS011;26461;45.630;9.418;2023-06-19T15:24:45;8.07;;;7.67;;
40755;SDS011;26461;45.630;9.418;2023-06-19T15:27:50;6.83;;;6.43;;
40755;SDS011;26461;45.630;9.418;2023-06-19T15:31:00;7.20;;;6.80;;
40755;SDS011;26461;45.630;9.418;2023-06-19T15:34:11;7.07;;;6.60;;
40755;SDS011;26461;45.630;9.418;2023-06-19T15:37:18;7.67;;;7.27;;
40755;SDS011;26461;45.630;9.418;2023-06-19T15:40:28;7.70;;;7.30;;
40755;SDS011;26461;45.630;9.418;2023-06-19T15:43:39;9.53;;;8.27;;
40755;SDS011;26461;45.630;9.418;2023-06-19T15:46:45;13.43;;;9.33;;
40755;SDS011;26461;45.630;9.418;2023-06-19T15:49:55;9.17;;;7.03;;
40755;SDS011;26461;45.630;9.418;2023-06-19T15:53:02;9.33;;;8.10;;
40755;SDS011;26461;45.630;9.418;2023-06-19T15:56:12;7.83;;;7.37;;
40755;SDS011;26461;45.630;9.418;2023-06-19T15:59:22;9.73;;;9.20;;
40755;SDS011;26461;45.630;9.418;2023-06-19T16:02:27;7.90;;;7.50;;
40755;SDS011;26461;45.630;9.418;2023-06-19T16:05:38;7.57;;;7.17;;
40755;SDS011;26461;45.630;9.418;2023-06-19T16:08:48;13.53;;;7.47;;
40755;SDS011;26461;45.630;9.418;2023-06-19T16:11:56;7.30;;;6.90;;
40755;SDS011;26461;45.630;9.418;2023-06-19T16:15:07;7.13;;;6.73;;
40755;SDS011;26461;45.630;9.418;2023-06-19T16:18:20;8.07;;;7.10;;
40755;SDS011;26461;45.630;9.418;2023-06-19T16:21:30;8.97;;;8.10;;
40755;SDS011;26461;45.630;9.418;2023-06-19T16:24:41;9.33;;;7.00;;
40755;SDS011;26461;45.630;9.418;2023-06-19T16:27:52;7.27;;;6.67;;
40755;SDS011;26461;45.630;9.418;2023-06-19T16:31:02;6.90;;;6.40;;
40755;SDS011;26461;45.630;9.418;2023-06-19T16:34:12;9.13;;;8.63;;
40755;SDS011;26461;45.630;9.418;2023-06-19T16:37:22;8.00;;;7.60;;
40755;SDS011;26461;45.630;9.418;2023-06-19T16:40:32;7.70;;;7.30;;
40755;SDS011;26461;45.630;9.418;2023-06-19T16:43:43;6.77;;;6.37;;
40755;SDS011;26461;45.630;9.418;2023-06-19T16:46:48;7.50;;;6.60;;
40755;SDS011;26461;45.630;9.418;2023-06-19T16:49:59;8.00;;;7.60;;
40755;SDS011;26461;45.630;9.418;2023-06-19T16:53:09;8.57;;;8.07;;
40755;SDS011;26461;45.630;9.418;2023-06-19T16:56:19;8.77;;;8.27;;
40755;SDS011;26461;45.630;9.418;2023-06-19T16:59:29;7.30;;;6.90;;
40755;SDS011;26461;45.630;9.418;2023-06-19T17:02:39;6.60;;;6.20;;
40755;SDS011;26461;45.630;9.418;2023-06-19T17:05:49;8.63;;;8.13;;
40755;SDS011;26461;45.630;9.418;2023-06-19T17:09:00;8.00;;;7.60;;
40755;SDS011;26461;45.630;9.418;2023-06-19T17:12:10;8.80;;;8.30;;
40755;SDS011;26461;45.630;9.418;2023-06-19T17:15:15;7.20;;;6.80;;
40755;SDS011;26461;45.630;9.418;2023-06-19T17:18:27;10.13;;;7.03;;
40755;SDS011;26461;45.630;9.418;2023-06-19T17:21:37;8.17;;;7.77;;
40755;SDS011;26461;45.630;9.418;2023-06-19T17:24:42;8.63;;;8.13;;
40755;SDS011;26461;45.630;9.418;2023-06-19T17:27:52;9.43;;;8.33;;
40755;SDS011;26461;45.630;9.418;2023-06-19T17:30:57;8.07;;;7.67;;
40755;SDS011;26461;45.630;9.418;2023-06-19T17:34:07;10.27;;;8.07;;
40755;SDS011;26461;45.630;9.418;2023-06-19T17:37:17;8.10;;;7.43;;
40755;SDS011;26461;45.630;9.418;2023-06-19T17:40:27;7.77;;;7.40;;
40755;SDS011;26461;45.630;9.418;2023-06-19T17:43:32;7.10;;;6.40;;
40755;SDS011;26461;45.630;9.418;2023-06-19T17:46:42;8.00;;;7.60;;
40755;SDS011;26461;45.630;9.418;2023-06-19T17:49:53;8.13;;;7.73;;
40755;SDS011;26461;45.630;9.418;2023-06-19T17:52:58;8.53;;;8.03;;
40755;SDS011;26461;45.630;9.418;2023-06-19T17:56:11;10.53;;;7.60;;
40755;SDS011;26461;45.630;9.418;2023-06-19T17:59:21;8.50;;;8.00;;
40755;SDS011;26461;45.630;9.418;2023-06-19T18:02:31;9.37;;;8.80;;
40755;SDS011;26461;45.630;9.418;2023-06-19T18:05:43;8.17;;;7.83;;
40755;SDS011;26461;45.630;9.418;2023-06-19T18:08:48;8.87;;;8.17;;
40755;SDS011;26461;45.630;9.418;2023-06-19T18:16:40;8.50;;;7.80;;
40755;SDS011;26461;45.630;9.418;2023-06-19T18:19:52;7.93;;;7.53;;
40755;SDS011;26461;45.630;9.418;2023-06-19T18:22:58;9.43;;;8.93;;
40755;SDS011;26461;45.630;9.418;2023-06-19T18:26:06;11.73;;;8.10;;
40755;SDS011;26461;45.630;9.418;2023-06-19T18:29:16;8.40;;;7.80;;
40755;SDS011;26461;45.630;9.418;2023-06-19T18:32:21;9.03;;;8.53;;
40755;SDS011;26461;45.630;9.418;2023-06-19T18:35:26;8.10;;;7.70;;
40755;SDS011;26461;45.630;9.418;2023-06-19T18:38:37;9.23;;;8.73;;
40755;SDS011;26461;45.630;9.418;2023-06-19T18:41:47;8.00;;;7.60;;
40755;SDS011;26461;45.630;9.418;2023-06-19T18:44:58;8.60;;;8.10;;
40755;SDS011;26461;45.630;9.418;2023-06-19T18:48:09;9.17;;;8.67;;
40755;SDS011;26461;45.630;9.418;2023-06-19T18:51:19;12.40;;;8.37;;
40755;SDS011;26461;45.630;9.418;2023-06-19T18:54:30;8.17;;;7.77;;